Startpagina
METAR-TAF:

METAR-TAF

Vliegvelden :

Uden, Nederland

Vliegbasis Volkel

breedte: 51-39N, lengte: 005-42E, hoogte: 22 m

Actueel weer

Dit bericht is 25 minuten geleden gemaakt, om 11:25 UTC
Wind 10 kt uit het westen, variërend tussen het zuidzuidwesten en het westnoordwesten
Temperatuur 34°C
Vochtigheid 30%
Druk 1009 hPa
Zicht 10 km of meer
geen wolken onder 1500 m en geen cumulonimbus

METAR: EHVK 221125Z AUTO 23012KT 200V300 9999 FEW210 SCT360 34/14 Q1009 BLU 26010KT CAVOK BECMG 28012G25KT

Tijdstip: 13:50 (11:50 UTC)

Verwachting

Dit bericht is 3 uur en het 21 minuten geleden gemaakt, om 08:29 UTC
Verwachting geldig van 22 om 09 UTC tot 22 om 21 UTC
Wind 10 kt uit het westzuidwesten
Zicht 10 km of meer
geen wolken onder 1500 m en geen cumulonimbus
Wijzigt naar
van 22 om 12 UTC tot 22 om 14 UTC
Wind 12 kt uit het westen met uitschieters tot 25 kt

TAF: EHVK 220829Z 2209/2221 25010KT CAVOK BECMG 2212/2214 28012G25KT

Waarnemingen en weersverwachtingen van meer dan 4000 vliegvelden (METAR en TAF).

De beschikbare stations zijn de gele en rode punten op de kaart.

Ga met uw muis naar het station om de naam te zien.

Klik dan om waarnemingen en weersverwachtingen te zien.

kaart wijzigen: klik op de groene knoppen met een zwart kruis om in te zoomen, op de groene knop met een streepje om uit te zoomen of op de groene pijlen voor aangrenzende kaarten.


METAR-TAF: